createdAt,value
2018-11-14T00:01:31.780Z,23.10
2018-11-14T00:05:35.027Z,23.10
2018-11-14T00:09:38.916Z,26.57
2018-11-14T00:13:42.067Z,23.07
2018-11-14T00:17:46.228Z,26.47
2018-11-14T00:21:49.465Z,29.83
2018-11-14T00:25:53.708Z,27.80
2018-11-14T00:29:56.888Z,29.77
2018-11-14T00:34:00.116Z,30.73
2018-11-14T00:38:03.295Z,34.40
2018-11-14T00:42:06.547Z,29.33
2018-11-14T00:46:09.771Z,31.97
2018-11-14T00:50:13.984Z,32.40
2018-11-14T00:54:17.167Z,29.43
2018-11-14T00:58:20.414Z,28.47
2018-11-14T01:02:23.688Z,30.03
2018-11-14T01:06:26.893Z,28.23
2018-11-14T01:10:30.115Z,29.93
2018-11-14T01:14:33.361Z,30.23
2018-11-14T01:18:36.653Z,32.33
2018-11-14T01:22:40.410Z,39.73
2018-11-14T01:26:46.870Z,40.73
2018-11-14T01:30:50.056Z,38.10
2018-11-14T01:34:53.280Z,30.63
2018-11-14T01:38:56.508Z,36.73
2018-11-14T01:42:59.732Z,41.13
2018-11-14T01:47:02.975Z,36.00
2018-11-14T01:51:06.163Z,40.50
2018-11-14T01:55:11.015Z,51.27
2018-11-14T01:59:14.198Z,39.90
2018-11-14T02:03:17.437Z,40.60
2018-11-14T02:11:42.033Z,46.77
2018-11-14T02:15:45.262Z,48.67
2018-11-14T02:19:48.504Z,49.60
2018-11-14T02:23:51.753Z,51.13
2018-11-14T02:27:54.955Z,56.63
2018-11-14T02:31:58.207Z,52.90
2018-11-14T02:36:01.407Z,47.67
2018-11-14T02:40:05.248Z,52.90
2018-11-14T02:44:08.472Z,51.13
2018-11-14T02:48:11.740Z,55.53
2018-11-14T02:52:14.953Z,49.33
2018-11-14T02:56:19.251Z,48.77
2018-11-14T03:00:22.626Z,46.00
2018-11-14T03:04:25.840Z,49.90
2018-11-14T03:08:29.114Z,51.70
2018-11-14T03:12:32.427Z,40.67
2018-11-14T03:16:35.551Z,47.40
2018-11-14T03:20:38.771Z,48.00
2018-11-14T03:24:42.039Z,43.33
2018-11-14T03:28:45.207Z,45.93
2018-11-14T03:32:48.453Z,50.63
2018-11-14T03:36:51.655Z,39.83
2018-11-14T03:40:54.873Z,50.70
2018-11-14T03:44:58.085Z,40.50
2018-11-14T03:49:01.312Z,41.87
2018-11-14T03:53:05.083Z,50.73
2018-11-14T03:57:08.298Z,41.93
2018-11-14T04:01:11.538Z,44.03
2018-11-14T04:05:14.795Z,46.40
2018-11-14T04:09:18.040Z,44.90
2018-11-14T04:13:21.237Z,53.67
2018-11-14T04:17:27.827Z,45.33
2018-11-14T04:21:31.096Z,45.23
2018-11-14T04:25:34.358Z,39.70
2018-11-14T04:29:37.551Z,40.17
2018-11-14T04:33:40.796Z,39.37
2018-11-14T04:37:44.054Z,37.47
2018-11-14T04:41:47.260Z,41.67
2018-11-14T04:45:50.498Z,37.97
2018-11-14T04:49:53.704Z,40.47
2018-11-14T04:53:56.923Z,42.70
2018-11-14T04:58:00.129Z,40.17
2018-11-14T05:02:03.349Z,42.33
2018-11-14T05:06:06.576Z,42.53
2018-11-14T05:10:13.722Z,43.00
2018-11-14T05:14:16.902Z,41.53
2018-11-14T05:18:20.146Z,37.93
2018-11-14T05:22:23.378Z,41.90
2018-11-14T05:26:26.602Z,39.73
2018-11-14T05:30:29.802Z,38.27
2018-11-14T05:34:32.983Z,41.73
2018-11-14T05:38:36.180Z,47.98
2018-11-14T05:42:40.059Z,43.00
2018-11-14T05:46:44.355Z,39.97
2018-11-14T05:50:47.812Z,39.50
2018-11-14T05:54:51.050Z,36.50
2018-11-14T05:58:54.160Z,38.00
2018-11-14T06:02:57.595Z,33.87
2018-11-14T06:07:00.761Z,31.00
2018-11-14T06:11:03.940Z,31.17
2018-11-14T06:15:08.381Z,27.97
2018-11-14T06:19:11.582Z,33.30
2018-11-14T06:23:14.788Z,24.00
2018-11-14T06:27:17.979Z,28.23
2018-11-14T06:31:21.146Z,24.90
2018-11-14T06:35:24.440Z,32.03
2018-11-14T06:39:27.593Z,36.95
2018-11-14T06:43:30.767Z,35.70
2018-11-14T06:47:33.926Z,31.30
2018-11-14T06:51:37.046Z,41.97
2018-11-14T06:55:40.193Z,31.30
2018-11-14T06:59:43.369Z,29.60
2018-11-14T07:03:46.405Z,34.83
2018-11-14T07:07:49.548Z,37.27
2018-11-14T07:11:52.684Z,35.90
2018-11-14T07:15:55.843Z,37.53
2018-11-14T07:19:58.988Z,30.77
2018-11-14T07:24:02.132Z,39.27
2018-11-14T07:28:05.296Z,36.37
2018-11-14T07:32:08.446Z,41.43
2018-11-14T07:36:11.567Z,41.13
2018-11-14T07:40:14.707Z,40.67
2018-11-14T07:44:17.835Z,31.67
2018-11-14T07:48:20.980Z,34.20
2018-11-14T07:52:24.102Z,41.50
2018-11-14T07:56:27.357Z,46.23
2018-11-14T08:00:30.549Z,34.50
2018-11-14T08:04:33.736Z,42.90
2018-11-14T08:08:36.951Z,34.23
2018-11-14T08:12:40.128Z,29.77
2018-11-14T08:16:43.351Z,35.53
2018-11-14T08:20:46.580Z,41.33
2018-11-14T08:24:49.914Z,22.60
2018-11-14T08:28:53.011Z,31.33
2018-11-14T08:32:56.177Z,25.87
2018-11-14T08:36:59.311Z,27.53
2018-11-14T08:41:02.472Z,31.97
2018-11-14T08:45:06.436Z,23.87
2018-11-14T08:49:09.571Z,22.37
2018-11-14T08:53:12.711Z,20.13
2018-11-14T08:57:15.849Z,19.50
2018-11-14T09:01:18.997Z,18.30
2018-11-14T09:05:22.132Z,19.90
2018-11-14T09:09:25.254Z,15.83
2018-11-14T09:13:28.376Z,15.27
2018-11-14T09:17:31.551Z,21.33
2018-11-14T09:21:34.688Z,17.40
2018-11-14T09:25:37.802Z,12.80
2018-11-14T09:29:40.938Z,16.70
2018-11-14T09:33:44.057Z,14.47
2018-11-14T09:37:47.296Z,17.00
2018-11-14T09:41:50.387Z,18.83
2018-11-14T09:45:53.482Z,15.77
2018-11-14T09:49:56.600Z,17.23
2018-11-14T09:53:59.784Z,16.10
2018-11-14T09:58:02.944Z,19.03
2018-11-14T10:02:06.132Z,15.03
2018-11-14T10:06:09.324Z,15.63
2018-11-14T10:10:14.232Z,16.73
2018-11-14T10:14:17.324Z,17.53
2018-11-14T10:18:20.522Z,11.73
2018-11-14T10:22:23.643Z,13.07
2018-11-14T10:26:26.800Z,18.20
2018-11-14T10:30:30.022Z,11.20
2018-11-14T10:34:33.164Z,12.90
2018-11-14T10:38:36.298Z,11.20
2018-11-14T10:42:39.514Z,14.43
2018-11-14T10:46:42.626Z,10.37
2018-11-14T10:50:45.709Z,17.90
2018-11-14T10:54:48.861Z,14.23
2018-11-14T10:58:52.012Z,11.53
2018-11-14T11:03:00.875Z,10.90
2018-11-14T11:07:09.493Z,15.27
2018-11-14T11:11:22.231Z,14.83
2018-11-14T11:15:31.636Z,15.37
2018-11-14T11:19:34.804Z,10.57
2018-11-14T11:23:38.025Z,11.73
2018-11-14T11:27:41.164Z,9.07
2018-11-14T11:31:44.293Z,11.97
2018-11-14T11:35:47.429Z,12.95
2018-11-14T11:39:50.605Z,13.03
2018-11-14T12:08:07.904Z,9.40
2018-11-14T12:12:10.951Z,7.67
2018-11-14T12:16:14.143Z,8.17
2018-11-14T12:20:17.208Z,7.07
2018-11-14T12:24:20.280Z,8.50
2018-11-14T12:28:23.549Z,8.97
2018-11-14T12:32:26.598Z,8.83
2018-11-14T12:36:29.796Z,6.10
2018-11-14T12:40:33.020Z,8.70
2018-11-14T12:44:36.081Z,11.23
2018-11-14T12:48:39.144Z,10.10
2018-11-14T12:52:42.887Z,11.77
2018-11-14T12:56:45.891Z,6.73
2018-11-14T13:00:48.975Z,11.70
2018-11-14T13:04:52.055Z,8.07
2018-11-14T13:08:55.095Z,9.77
2018-11-14T13:12:58.160Z,11.70
2018-11-14T13:17:01.242Z,9.40
2018-11-14T13:21:04.626Z,7.83
2018-11-14T13:25:08.707Z,8.47
2018-11-14T13:29:11.759Z,5.27
2018-11-14T13:33:14.836Z,12.63
2018-11-14T13:37:17.953Z,6.77
2018-11-14T13:41:21.013Z,9.27
2018-11-14T13:45:24.078Z,12.80
2018-11-14T13:49:27.297Z,6.47
2018-11-14T13:53:30.200Z,7.43
2018-11-14T13:57:33.272Z,8.33
2018-11-14T14:01:36.335Z,7.00
2018-11-14T14:05:39.436Z,6.80
2018-11-14T14:09:42.491Z,7.57
2018-11-14T14:13:50.909Z,10.83
2018-11-14T14:17:54.008Z,7.40
2018-11-14T14:21:57.154Z,8.40
2018-11-14T14:26:00.163Z,8.33
2018-11-14T14:30:03.263Z,18.67
2018-11-14T14:34:06.406Z,13.77
2018-11-14T14:38:09.558Z,9.70
2018-11-14T14:42:12.579Z,15.10
2018-11-14T14:46:15.664Z,14.40
2018-11-14T14:50:19.399Z,9.13
2018-11-14T14:54:22.459Z,10.80
2018-11-14T14:58:25.525Z,8.57
2018-11-14T15:02:28.595Z,12.13
2018-11-14T15:06:31.642Z,14.57
2018-11-14T15:10:34.716Z,9.90
2018-11-14T15:14:37.783Z,8.47
2018-11-14T15:18:40.864Z,11.83
2018-11-14T15:22:44.115Z,9.87
2018-11-14T15:26:47.116Z,10.63
2018-11-14T15:30:50.201Z,8.33
2018-11-14T15:34:53.249Z,9.27
2018-11-14T15:38:56.327Z,15.80
2018-11-14T15:42:59.402Z,6.87
2018-11-14T15:47:02.475Z,6.60
2018-11-14T15:51:05.705Z,10.77
2018-11-14T15:55:10.055Z,10.83
2018-11-14T15:59:13.141Z,7.80
2018-11-14T16:03:16.219Z,8.03
2018-11-14T16:07:19.291Z,10.27
2018-11-14T16:11:22.339Z,10.30
2018-11-14T16:15:26.902Z,8.50
2018-11-14T16:19:29.997Z,11.07
2018-11-14T16:23:33.058Z,7.77
2018-11-14T16:27:36.142Z,11.07
2018-11-14T16:31:40.037Z,8.40
2018-11-14T16:35:43.110Z,6.60
2018-11-14T16:39:46.171Z,7.13
2018-11-14T16:43:49.248Z,11.60
2018-11-14T16:47:52.305Z,9.20
2018-11-14T16:51:55.359Z,9.20
2018-11-14T16:55:58.446Z,9.60
2018-11-14T17:00:01.511Z,8.57
2018-11-14T17:04:04.692Z,8.60
2018-11-14T17:08:07.759Z,5.63
2018-11-14T17:12:10.834Z,10.03
2018-11-14T17:16:13.932Z,10.10
2018-11-14T17:20:18.003Z,7.30
2018-11-14T17:24:21.158Z,12.30
2018-11-14T17:28:24.265Z,7.50
2018-11-14T17:32:27.335Z,8.23
2018-11-14T17:36:30.406Z,6.97
2018-11-14T17:40:33.484Z,10.93
2018-11-14T17:44:36.551Z,12.20
2018-11-14T17:48:39.617Z,10.40
2018-11-14T17:52:42.679Z,7.70
2018-11-14T17:56:45.743Z,8.70
2018-11-14T18:00:48.813Z,9.07
2018-11-14T18:04:51.883Z,8.27
2018-11-14T18:08:55.251Z,7.40
2018-11-14T18:12:59.579Z,8.53
2018-11-14T18:17:02.672Z,7.43
2018-11-14T18:21:05.777Z,11.17
2018-11-14T18:25:09.199Z,8.17
2018-11-14T18:29:12.280Z,9.00
2018-11-14T18:33:15.324Z,8.80
2018-11-14T18:37:18.395Z,9.03
2018-11-14T18:41:21.461Z,8.83
2018-11-14T18:45:26.135Z,9.90
2018-11-14T18:49:29.303Z,10.70
2018-11-14T18:53:32.375Z,11.37
2018-11-14T18:57:36.359Z,10.80
2018-11-14T19:01:39.579Z,10.33
2018-11-14T19:05:42.643Z,11.63
2018-11-14T19:09:45.691Z,12.47
2018-11-14T19:13:48.757Z,13.30
2018-11-14T19:17:51.885Z,10.70
2018-11-14T19:21:54.943Z,11.70
2018-11-14T19:25:59.096Z,12.33
2018-11-14T19:30:02.248Z,15.87
2018-11-14T19:34:05.372Z,10.07
2018-11-14T19:38:08.434Z,11.10
2018-11-14T19:42:11.756Z,11.80
2018-11-14T19:46:14.858Z,14.10
2018-11-14T19:50:20.344Z,12.53
2018-11-14T19:54:23.471Z,10.40
2018-11-14T19:58:27.199Z,12.40
2018-11-14T20:02:30.729Z,17.07
2018-11-14T20:06:33.891Z,16.00
2018-11-14T20:10:37.102Z,11.50
2018-11-14T20:14:40.958Z,10.77
2018-11-14T20:18:44.131Z,13.17
2018-11-14T20:22:47.291Z,14.23
2018-11-14T20:26:50.869Z,19.33
2018-11-14T20:30:54.022Z,13.67
2018-11-14T20:34:57.101Z,13.47
2018-11-14T20:39:00.184Z,16.00
2018-11-14T20:43:05.188Z,14.30
2018-11-14T20:47:08.232Z,15.37
2018-11-14T20:51:11.502Z,15.00
2018-11-14T20:55:15.907Z,16.47
2018-11-14T20:59:19.071Z,14.37
2018-11-14T21:03:23.328Z,13.37
2018-11-14T21:07:26.467Z,13.50
2018-11-14T21:11:30.556Z,13.50
2018-11-14T21:15:35.086Z,14.40
2018-11-14T21:19:38.423Z,15.47
2018-11-14T21:23:41.648Z,19.17
2018-11-14T21:27:45.762Z,15.40
2018-11-14T21:31:48.894Z,14.67
2018-11-14T21:35:51.963Z,16.40
2018-11-14T21:39:55.046Z,13.10
2018-11-14T21:43:58.644Z,13.00
2018-11-14T21:48:07.854Z,13.87
2018-11-14T21:52:11.787Z,16.57
2018-11-14T21:56:16.265Z,11.83
2018-11-14T22:00:21.256Z,18.32
2018-11-14T22:04:24.973Z,13.57
2018-11-14T22:08:28.575Z,14.53
2018-11-14T22:12:32.313Z,13.53
2018-11-14T22:16:36.122Z,12.40
2018-11-14T22:20:39.933Z,13.70
2018-11-14T22:24:43.428Z,13.27
2018-11-14T22:28:46.490Z,14.63
2018-11-14T22:32:49.979Z,12.67
2018-11-14T22:36:53.675Z,13.67
2018-11-14T22:40:57.096Z,17.17
2018-11-14T22:45:00.153Z,13.53
2018-11-14T22:49:03.799Z,11.43
2018-11-14T22:53:06.919Z,14.93
2018-11-14T22:57:10.168Z,15.13
2018-11-14T23:01:13.823Z,15.93
2018-11-14T23:05:17.355Z,15.70
2018-11-14T23:09:20.480Z,16.30
2018-11-14T23:13:23.517Z,12.00
2018-11-14T23:17:26.606Z,15.37
2018-11-14T23:21:29.667Z,12.50
2018-11-14T23:25:32.744Z,14.67
2018-11-14T23:29:35.801Z,15.37
2018-11-14T23:33:38.863Z,13.70
2018-11-14T23:37:42.028Z,16.33
2018-11-14T23:41:45.101Z,14.17
2018-11-14T23:45:48.182Z,11.50
2018-11-14T23:49:51.352Z,14.43
2018-11-14T23:53:54.390Z,15.13
2018-11-14T23:57:57.851Z,14.03
